Terminal Aerodrome Forecast
Issued by NWS

Current Version | Previous Version | Text Only | Print | Product List | Glossary On
Versions: 1 2 3 4 5 6 7 8 9 10 11 12 13 14 15 16 17 18 19 20 21 22 23 24 25 26
000
FTUS41 KBUF 202100 AAA
TAFJHW
TAF AMD
KJHW 202118Z 2021/2118 19009KT P6SM -SHRA OVC050
     FM210100 18008KT 4SM SHRA BR OVC020
     FM210400 18007KT 6SM -SHRA BR OVC007
     FM210700 21005KT 5SM -SHRA BR OVC004
     FM211000 23006KT 2SM -SHRA BR OVC003
     FM211400 30007KT 2SM -SHRA BR OVC003
      AMD LTD TO CLD VIS AND WIND=

USA.gov is the U.S. government's official web portal to all federal, state and local government web resources and services.